Terminal Aerodrome Forecast
Issued by NWS

Home | Current Version | Previous Version | Text Only | Print | Product List | Glossary On
Versions: 1 2 3 4 5 6 7 8 9 10 11 12 13 14 15 16 17 18 19 20
955
FTUS43 KDLH 081736
TAFHYR
TAF
KHYR 081736Z 0818/0918 32010G17KT P6SM VCSH OVC020
     FM082200 31006KT P6SM VCSH OVC015
     FM091300 29005KT P6SM VCSH OVC015=

USA.gov is the U.S. government's official web portal to all federal, state and local government web resources and services.